Edgar Albert Guest

(20 August 1881 - 5 August 1959 / Birmingham / England)

Stats

» Click to list general statistics » OR, select a date :

General Statistics

Visitors of the poet

Number of visitors of the poet’s mainpage in PoemHunter.Com

Attention : Numbers in this table does not indicate the total hits of poems of the poet, but indicates the hits of the poet’s main page.

Date Hits
03/25/2015 Wednesday 734
51%
03/24/2015 Tuesday 620
43%
03/23/2015 Monday 795
55%
03/22/2015 Sunday 412
28%
03/21/2015 Saturday 470
32%
03/20/2015 Friday 468
32%
03/19/2015 Thursday 726
50%
03/18/2015 Wednesday 530
36%
03/17/2015 Tuesday 532
37%
03/16/2015 Monday 475
33%
03/15/2015 Sunday 606
42%
03/14/2015 Saturday 1436
100%
03/13/2015 Friday 345
24%
03/12/2015 Thursday 635
44%
03/11/2015 Wednesday 391
27%
03/10/2015 Tuesday 527
36%
03/09/2015 Monday 480
33%
03/08/2015 Sunday 504
35%
03/07/2015 Saturday 698
48%
03/06/2015 Friday 924
64%

Reader rating & num.of MyPoemList’s

Click the captions of columns to change the order.

# Poem Title Submit Date Reader Rating Num.of MyPoemList’s
Rating Num.R.
1 A Friend 07/11/2014 10.0 1 0
2 A Christmas Carol 07/11/2014 10.0 1 0
3 Sermons We See 07/11/2014 10.0 1 0
4 When Day Is Done 07/11/2014 10.0 1 0
5 Myself 07/12/2014 10.0 1 1
6 Life's Canvas 07/11/2014 10.0 1 1
7 Home 07/12/2014 10.0 1 0
8 Improvement 07/12/2014 10.0 1 0
9 The Obligation Of Friendship 07/14/2014 10.0 1 0
10 At Christmas 07/15/2014 10.0 1 1
11 The Living Beauties 07/12/2014 10.0 1 0
12 Gratitude 07/14/2014 10.0 1 0
13 Money 08/20/2014 10.0 1 0
14 The Tragedy Of Age 08/14/2014 10.0 1 0
15 My Religion 08/14/2014 10.0 1 0
16 Mother 07/11/2014 9.0 1 0
17 Men And Dreamers 08/26/2014 9.0 1 0
18 A Baby's Love 08/14/2014 9.0 1 1
19 A Friend's Greeting 08/20/2014 9.0 1 0
20 A Boy At Christmas 08/14/2014 9.0 1 1
21 Midnight In The Pantry 07/12/2014 9.0 1 0
22 A Boy's Tribute 07/12/2014 9.0 1 0
23 A Boy And His Dad 07/11/2014 9.0 1 0
24 A Boy And His Dog 07/11/2014 9.0 1 0
25 Memory 07/12/2014 8.0 1 0
26 A Boost For Modern Methods 07/12/2014 8.0 1 0
27 A Battle Prayer 08/14/2014 8.0 1 0
28 The Unknown Friends 08/14/2014 8.0 1 0
29 A Choice 08/14/2014 8.0 1 0
30 A Breach Of Friendship 08/14/2014 8.0 1 0
31 A Child Of Mine 07/11/2014 7.0 1 0
32 A Bear Story 07/14/2014 7.0 1 0
33 A Family Row 08/14/2014 5.0 1 0
34 When Father Shook The Stove 03/29/2010 9.0 2 1
35 Yesterday 01/01/2004 10.0 3 60
36 The Little Orphan 01/01/2004 9.8 6 45
37 Reflection 03/29/2010 6.3 12 1
38 The Alarm 03/29/2010 5.1 11 2
39 Drafted 03/29/2010 5.1 11 0
40 Grace At Evening 03/29/2010 5.1 11 2
41 Selfishness 03/29/2010 5.5 12 2
42 Compensation 03/29/2010 5.4 12 1
43 Follow A Famous Father 03/29/2010 5.8 13 3
44 The Kick Under The Table 03/29/2010 5.1 12 4
45 Show Me! 03/29/2010 5.5 13 6
46 The Bachelor's Soliloquy 01/01/2004 6.5 16 39
47 On Quitting 01/01/2004 6.5 16 70
48 Move We Adjourn 03/29/2010 5.2 13 1
49 Ideals 03/29/2010 5.5 14 2
50 Father 01/01/2004 5.7 15 59
51 A Christmas Greeting 03/29/2010 6.1 16 1
52 Thanksgiving 01/01/2004 6.6 18 45
53 Peace 03/29/2010 4.9 14 2
54 I See You've Travelled Some 03/29/2010 5.1 15 1
55 A Father's Prayer 03/29/2010 5.8 17 6
56 Hard Luck 01/01/2004 6.0 19 56
57 If You Would Please Me 03/29/2010 4.9 16 2
58 Life's Slacker 03/29/2010 4.9 16 3
59 A Toast to the Men 01/01/2004 4.6 16 49
60 He Who Serves 03/29/2010 5.3 19 4
61 See it Through 01/01/2004 8.0 50 154
62 The Lamb Skin 03/29/2010 -- 0 0
63 The Proof Of Worth 03/29/2010 -- 0 2
64 The Temple - What Makes It Of Worth 03/29/2010 -- 0 0
65 The Wrist Watch Man 03/29/2010 -- 0 1
66 Things Work Out 03/29/2010 -- 0 8
67 It Couldn't Be Done 01/08/2014 -- 0 3
68 Equipment 07/11/2014 -- 0 1
69 The Little Home 07/11/2014 -- 0 0
70 You 07/11/2014 -- 0 0
71 Silent 07/11/2014 -- 0 0
72 He's Taken Out His Papers 07/11/2014 -- 0 0
73 On A Certain Religious Argument 07/11/2014 -- 0 0
74 No Room For Hate 07/11/2014 -- 0 0
75 The Scoutmaster 07/11/2014 -- 0 0
76 The Cookie Jar 07/11/2014 -- 0 0
77 What We Need 07/11/2014 -- 0 0
78 Checking The Day 07/11/2014 -- 0 0
79 The Path To Home 07/11/2014 -- 0 0
80 The Common Joys 07/11/2014 -- 0 0
81 What I Call Living 07/11/2014 -- 0 0
82 Forgotten Boyhood 07/11/2014 -- 0 0
83 Back Home 07/11/2014 -- 0 0
84 The Good Little Boy 07/11/2014 -- 0 0
85 The Cheat 07/11/2014 -- 0 0
86 The Dead Return 07/11/2014 -- 0 0
87 The Lay For The Troubled Golfer 07/11/2014 -- 0 0
88 Our House 07/11/2014 -- 0 0
89 Picture Books 07/11/2014 -- 0 0
90 Lines For A Flag Raising Ceremony 07/11/2014 -- 0 0
91 Lord, Make Me A Regular Man 07/11/2014 -- 0 0
92 Boy O' Mine 07/11/2014 -- 0 0
93 Folks 07/11/2014 -- 0 0
94 The Soldier On Crutches 07/11/2014 -- 0 0
95 If This Were All 07/11/2014 -- 0 0
96 The First Easter 07/11/2014 -- 0 0
97 A Creed 07/11/2014 -- 0 0
98 As We Prayed 07/11/2014 -- 0 0
99 Prayer For The Home 07/11/2014 -- 0 0
100 Good Books 07/11/2014 -- 0 0
101 A New Baby In The House 07/11/2014 -- 0 0
102 No Better Land Than This 07/11/2014 -- 0 0
103 No Children! 07/11/2014 -- 0 0
104 Home And The Office 07/11/2014 -- 0 0
105 When Sorrow Comes 07/11/2014 -- 0 0
106 The Future 07/11/2014 -- 0 0
107 Influence 07/11/2014 -- 0 0
108 A New Year's Plea 07/11/2014 -- 0 0
109 The Pup 07/12/2014 -- 0 0
110 Thec Lanes Of Memory 07/12/2014 -- 0 0
111 Memorial Day 07/12/2014 -- 0 0
112 Heroes 07/12/2014 -- 0 0
113 God Made This Day For Me 07/11/2014 -- 0 0
114 Sausage 07/11/2014 -- 0 0
115 Old-Fashioned Letters 07/11/2014 -- 0 0
116 The Frosting Dish 07/11/2014 -- 0 0
117 Out Fishin' 07/12/2014 -- 0 0
118 July The Fourth 07/12/2014 -- 0 0
119 The Silver Stripes 07/12/2014 -- 0 0
120 Hate 07/12/2014 -- 0 0
121 A Plea 07/12/2014 -- 0 0
122 The Big Deeds 07/12/2014 -- 0 0
123 The Gold Star 07/12/2014 -- 0 0
124 Prophecy 07/12/2014 -- 0 0
125 When The Drums Shall Cease To Beat 07/12/2014 -- 0 0
126 The Lonely Garden 07/12/2014 -- 0 0
127 Battle Of Belleau Wood 07/12/2014 -- 0 0
128 A Prayer, 1918 07/12/2014 -- 0 0
129 Christmas, 1918 07/12/2014 -- 0 0
130 It Couldn't Be Done 07/12/2014 -- 0 0
131 Hard Luck 07/12/2014 -- 0 0
132 On Quitting 07/12/2014 -- 0 1
133 Childless 07/12/2014 -- 0 0
134 The Crucible Of Life 07/12/2014 -- 0 0
135 Laughter 07/12/2014 -- 0 0
136 Signs 07/12/2014 -- 0 0
137 Constant Beauty 07/12/2014 -- 0 0
138 Departed Friends 07/12/2014 -- 0 0
139 A Fine Sight 07/12/2014 -- 0 0
140 Grown Up 07/12/2014 -- 0 0
141 Mothers' Excuses 07/12/2014 -- 0 0
142 Unimportant Differences 07/12/2014 -- 0 0
143 The Fishing Outfit 07/12/2014 -- 0 0
144 When Father Played Baseball 07/12/2014 -- 0 0
145 Since Jessie Died 07/12/2014 -- 0 0
146 To The Humble 07/12/2014 -- 0 0
147 The Summer Children 07/12/2014 -- 0 0
148 Baby Feet 07/11/2014 -- 0 0
149 When A Little Baby Dies 07/11/2014 -- 0 0
150 Courage, Courage, Courage! 07/11/2014 -- 0 0
151 Being Brave At Night 07/11/2014 -- 0 0
152 A Friend [2] 07/11/2014 -- 0 0
153 The Fifty-Per-Cent Man 07/11/2014 -- 0 0
154 The Best Land 07/11/2014 -- 0 0
155 Making The House A Home 07/11/2014 -- 0 0
156 I Mustn't Forget 07/11/2014 -- 0 0
157 Faith 07/11/2014 -- 0 0
158 The Need 07/11/2014 -- 0 0
159 The Brethren 07/11/2014 -- 0 0
160 Just Like A Man 07/11/2014 -- 0 0
161 Father 07/11/2014 -- 0 0
162 The Joys We Miss 07/11/2014 -- 0 0
163 The Homely Man 07/11/2014 -- 0 0
164 The Inn-Keeper Makes Excuses 07/11/2014 -- 0 0
165 All That Matters 07/11/2014 -- 0 0
166 The Tears Expressive 07/11/2014 -- 0 0
167 The Family Doctor 07/11/2014 -- 0 0
168 Playing The Game 07/11/2014 -- 0 0
169 Bread And Gravy 07/12/2014 -- 0 0
170 Motherhood 07/12/2014 -- 0 0
171 Just Half Of That, Please 07/12/2014 -- 0 0
172 Forgetful Pa 07/12/2014 -- 0 0
173 Living 07/12/2014 -- 0 0
174 When The Young Are Grown 07/12/2014 -- 0 0
175 Mother And The Baby 07/12/2014 -- 0 0
176 Success 07/12/2014 -- 0 0
177 Ten Fingered Mice 07/12/2014 -- 0 0
178 Youth 07/12/2014 -- 0 0
179 Clinching The Bolt 07/12/2014 -- 0 0
180 The Lonely Old Fellow 07/12/2014 -- 0 0
181 Playing For Keeps 07/12/2014 -- 0 0
182 A Warm House And A Ruddy Fire 07/12/2014 -- 0 0
183 The Boy's Ideal 07/12/2014 -- 0 0
184 Unchangeable Mother 07/12/2014 -- 0 0
185 The Harder Part 07/12/2014 -- 0 0
186 Accomplished Care 07/12/2014 -- 0 0
187 The Newspaper Man 07/12/2014 -- 0 0
188 The Common Touch 07/12/2014 -- 0 0
189 Little Feet 07/12/2014 -- 0 0
190 To A Young Man 07/12/2014 -- 0 0
191 Denial 07/12/2014 -- 0 0
192 The Call 07/12/2014 -- 0 0
193 Service 07/12/2014 -- 0 0
194 Example 07/12/2014 -- 0 0
195 The Kindly Neighbor 07/12/2014 -- 0 0
196 Somebody Else 07/12/2014 -- 0 0
197 The Grate Fire 07/12/2014 -- 0 0
198 The Workman's Dream 07/12/2014 -- 0 0
199 The One In Ten 07/12/2014 -- 0 0
200 Winding The Clock 07/12/2014 -- 0 0
201 Until She Died 07/12/2014 -- 0 0
202 Effort 07/12/2014 -- 0 0
203 The Things They Musn't Touch 07/12/2014 -- 0 0
204 Bulb Planting Time 07/12/2014 -- 0 0
205 His Other Chance 07/12/2014 -- 0 0
206 Marjorie 07/12/2014 -- 0 0
207 Fatherhood 07/12/2014 -- 0 0
208 Life 07/12/2014 -- 0 0
209 The Things They Mustn't Touch 07/12/2014 -- 0 0
210 When Mother Cooked With Wood 07/12/2014 -- 0 0
211 Sacrifice 07/12/2014 -- 0 0
212 Yesterday 07/12/2014 -- 0 0
213 The Important Thing 07/12/2014 -- 0 0
214 The Little Church 07/12/2014 -- 0 0
215 The Little Hurts 07/12/2014 -- 0 0
216 As It Goes 07/12/2014 -- 0 0
217 The Old, Old Story 07/12/2014 -- 0 0
218 Just Folks 07/12/2014 -- 0 0
219 Reward 07/12/2014 -- 0 0
220 The Scoffer 07/12/2014 -- 0 0
221 Daddies 07/12/2014 -- 0 0
222 Vacation Time 07/12/2014 -- 0 0
223 The Weaver 07/12/2014 -- 0 0
224 Show The Flag 07/12/2014 -- 0 0
225 Another Mouth To Feed 07/12/2014 -- 0 0
226 Friends 07/12/2014 -- 0 0
227 Toys 07/12/2014 -- 0 0
228 The Truth About Envy 07/12/2014 -- 0 0
229 The Job 07/12/2014 -- 0 0
230 The Lure That Failed 07/12/2014 -- 0 0
231 Curly Locks 07/12/2014 -- 0 0
232 Home And The Baby 07/12/2014 -- 0 0
233 The Old-Time Family 07/12/2014 -- 0 0
234 Loafing 07/12/2014 -- 0 0
235 The Roads Of Happiness 07/12/2014 -- 0 0
236 Hollyhocks 07/12/2014 -- 0 0
237 Songs Of Rejoicing 07/12/2014 -- 0 0
238 The Few 07/12/2014 -- 0 0
239 Manhood's Greeting 07/12/2014 -- 0 0
240 The Day Of Days 07/12/2014 -- 0 0
241 Fishing Nooks 07/12/2014 -- 0 0
242 At Pelletier's 07/12/2014 -- 0 0
243 The March Of Mortality 07/12/2014 -- 0 0
244 The World Is Against Me 07/12/2014 -- 0 0
245 The Man To Be 07/12/2014 -- 0 0
246 When Nellie's On The Job 07/12/2014 -- 0 0
247 A Father's Thoughts 07/12/2014 -- 0 0
248 The Home Builders 07/12/2014 -- 0 0
249 Send Her A Valentine 07/12/2014 -- 0 0
250 Growing Down 07/12/2014 -- 0 0
251 The Price Of Riches 07/12/2014 -- 0 0
252 My Books And I 07/12/2014 -- 0 0
253 The Auto 07/12/2014 -- 0 0
254 When Mother Sleeps 07/12/2014 -- 0 0
255 Questions 07/12/2014 -- 0 0
256 The Front Seat 07/12/2014 -- 0 0
257 The New Days 07/12/2014 -- 0 0
258 October 07/12/2014 -- 0 0
259 The Fisherman 07/12/2014 -- 0 0
260 There Are No Gods! 07/12/2014 -- 0 0
261 The Love Of The Game 07/12/2014 -- 0 0
262 The Handy Man 07/12/2014 -- 0 0
263 June 07/12/2014 -- 0 0
264 Sue's Got A Baby 07/12/2014 -- 0 0
265 Real Swimming 07/12/2014 -- 0 0
266 The Open Fire 07/12/2014 -- 0 0
267 The Other Fellow 07/12/2014 -- 0 0
268 Bud 07/12/2014 -- 0 0
269 We've Had A Letter From The Boy 07/12/2014 -- 0 0
270 Warriors 07/12/2014 -- 0 0
271 The Mother Faith 07/12/2014 -- 0 0
272 Rebellion 07/12/2014 -- 0 0
273 About Boys 07/12/2014 -- 0 0
274 Roses And Sunshine 07/12/2014 -- 0 0
275 Baby's Got A Tooth 07/12/2014 -- 0 0
276 See It Through 07/12/2014 -- 0 0
277 My Creed 07/12/2014 -- 0 0
278 As Fall The Leaves 07/12/2014 -- 0 0
279 Tomorrow 07/12/2014 -- 0 0
280 Can't 07/12/2014 -- 0 0
281 It's September 07/12/2014 -- 0 0
282 Success And Failure 07/12/2014 -- 0 0
283 A Wish 07/12/2014 -- 0 0
284 The Perfect Dinner Table 07/12/2014 -- 0 0
285 What A Baby Costs 07/12/2014 -- 0 0
286 How Do You Tackle Your Work 07/12/2014 -- 0 0
287 Life's Tests 07/12/2014 -- 0 0
288 Ma And The Auto 07/12/2014 -- 0 0
289 Courage 07/12/2014 -- 0 0
290 True Nobility 07/12/2014 -- 0 0
291 Our Duty To Our Flag 07/12/2014 -- 0 0
292 A Patriotic Wish 07/12/2014 -- 0 0
293 The Path That Leads To Home 07/12/2014 -- 0 0
294 Old Friends 07/12/2014 -- 0 0
295 Canning Time 07/12/2014 -- 0 0
296 On Going Home For Christmas 07/12/2014 -- 0 0
297 At The Door 07/12/2014 -- 0 0
298 The Boy That Was 07/12/2014 -- 0 0
299 Rich 07/12/2014 -- 0 0
300 The Sorrow Tugs 07/12/2014 -- 0 0
301 Greatness 07/12/2014 -- 0 0
302 Laddies 07/12/2014 -- 0 0
303 Mother's Glasses 07/12/2014 -- 0 0
304 The Hunter 07/12/2014 -- 0 0
305 Hard Knocks 07/12/2014 -- 0 0
306 Selfish 07/12/2014 -- 0 0
307 The Family's Homely Man 07/15/2014 -- 0 0
308 The Little Velvet Suit 07/15/2014 -- 0 0
309 The Little Army 07/15/2014 -- 0 0
310 The Boy Soldier 07/15/2014 -- 0 0
311 The Blue Flannel Shirt 07/15/2014 -- 0 0
312 The Mother On The Sidewalk 07/15/2014 -- 0 0
313 Bribed 07/15/2014 -- 0 0
314 The Flag On The Farm 07/15/2014 -- 0 0
315 If Only I Were Santa Claus 07/15/2014 -- 0 0
316 Lemon Pie 07/15/2014 -- 0 0
317 The Pathway Of The Living 07/15/2014 -- 0 0
318 A Toast To The Men 07/15/2014 -- 0 0
319 The Chaplain 07/15/2014 -- 0 0
320 The Kick Under The Table 07/15/2014 -- 0 0
321 Father 07/15/2014 -- 0 0
322 A Father's Prayer 07/15/2014 -- 0 0
323 Things Work Out 07/15/2014 -- 0 0
324 Leader Of The Gang 07/15/2014 -- 0 0
325 The Little Orphan 07/15/2014 -- 0 0
326 The Boy And The Flag 07/15/2014 -- 0 0
327 If You Would Please Me 07/15/2014 -- 0 0
328 Life's Slacker 07/15/2014 -- 0 0
329 The Bachelor's Soliloquy 07/15/2014 -- 0 0
330 Selfishness 07/15/2014 -- 0 0
331 Reflection 08/04/2014 -- 0 0
332 Story-Time 08/04/2014 -- 0 0
333 Reflection 08/04/2014 -- 0 0
334 The Old-Fashioned Parents 08/04/2014 -- 0 0
335 At The Millennium 08/04/2014 -- 0 0
336 The Proof Of Worth 08/14/2014 -- 0 0
337 We Need A Few More Optimists 08/14/2014 -- 0 0
338 The Alarm 08/14/2014 -- 0 0
339 A Christmas Greeting 08/14/2014 -- 0 0
340 Ideals 08/14/2014 -- 0 0
341 Compensation 08/14/2014 -- 0 0
342 My Part 08/14/2014 -- 0 0
343 The Complacent Slacker 08/14/2014 -- 0 0
344 The Temple - What Makes It Of Worth 08/14/2014 -- 0 0
345 Easy Service 08/14/2014 -- 0 0
346 Drafted 08/14/2014 -- 0 0
347 Show Me! 08/14/2014 -- 0 0
348 The Girl He Left Behind 08/14/2014 -- 0 0
349 The Wrist Watch Man 08/14/2014 -- 0 0
350 He Who Serves 08/14/2014 -- 0 0
351 Grace At Evening 08/14/2014 -- 0 0
352 For Your Boy And Mine 08/14/2014 -- 0 0
353 I See You've Travelled Some 08/14/2014 -- 0 0
354 The New Year 08/14/2014 -- 0 0
355 The Friendly Greeting 08/14/2014 -- 0 0
356 Taking His Place 08/14/2014 -- 0 0
357 Follow A Famous Father 08/14/2014 -- 0 0
358 Your Country Needs You 08/14/2014 -- 0 0
359 A Patriot 08/14/2014 -- 0 0
360 Envy 08/14/2014 -- 0 0
361 Revenge 07/14/2014 -- 0 0
362 Father And Son 07/14/2014 -- 0 0
363 Eternal Friendship 07/14/2014 -- 0 0
364 Purpose 07/14/2014 -- 0 0
365 Duty 07/14/2014 -- 0 0
366 Hard Work 07/14/2014 -- 0 0
367 Division 07/14/2014 -- 0 0
368 Understanding 07/14/2014 -- 0 0
369 The Joy Of A Dog 07/14/2014 -- 0 0
370 Expectation 07/14/2014 -- 0 0
371 The Price Of Joy 07/14/2014 -- 0 0
372 Roses 07/14/2014 -- 0 0
373 Real Singing 07/14/2014 -- 0 0
374 No Place To Go 07/14/2014 -- 0 0
375 Stuck 07/14/2014 -- 0 0
376 The Happy Slow Thinker 07/14/2014 -- 0 0
377 When Pa Comes Home 07/14/2014 -- 0 0
378 The Ready Artists 07/14/2014 -- 0 0
379 When Pa Counts 07/14/2014 -- 0 0
380 The Neighborly Man 07/14/2014 -- 0 0
381 The Happiest Days 07/14/2014 -- 0 0
382 The Bumps And Bruises Doctor 07/14/2014 -- 0 0
383 Mother's Day 07/14/2014 -- 0 0
384 The Sulkers 07/14/2014 -- 0 0
385 The June Couple 07/14/2014 -- 0 0
386 The Fishing Cure 07/14/2014 -- 0 0
387 The Junk Box 07/14/2014 -- 0 0
388 Promotion 07/14/2014 -- 0 0
389 House-Hunting 07/15/2014 -- 0 0
390 Autumn At The Orchard 07/15/2014 -- 0 0
391 To The Lady In The Electric 07/15/2014 -- 0 0
392 Homesick 07/15/2014 -- 0 0
393 The Real Bait 07/15/2014 -- 0 0
394 Under The Skin Of Men 07/15/2014 -- 0 0
395 The States 07/15/2014 -- 0 0
396 Ma And Her Checkbook 07/15/2014 -- 0 0
397 Guessing Time 07/15/2014 -- 0 0
398 The Princess Pat's 07/15/2014 -- 0 0
399 A Toast To Happiness 07/15/2014 -- 0 0
400 Out Of Doors 07/15/2014 -- 0 0
401 The Broken Drum 07/15/2014 -- 0 0
402 The First Steps 07/15/2014 -- 0 0
403 Pa Did It! 07/15/2014 -- 0 0
404 A Patriotic Creed 07/15/2014 -- 0 0
405 Grandpa 07/15/2014 -- 0 0
406 The Sorry Hostess 07/15/2014 -- 0 0
407 The Little Old Man 07/15/2014 -- 0 0
408 The Real Successes 07/15/2014 -- 0 0
409 As It Is 07/15/2014 -- 0 0
410 The Mother's Question 07/15/2014 -- 0 0
411 The Beauty Places 07/15/2014 -- 0 0
412 My Land 07/15/2014 -- 0 0
413 Up To The Ceiling 07/15/2014 -- 0 0
414 On Being Broke 07/15/2014 -- 0 0
415 The Fellowship Of Books 08/14/2014 -- 0 0
416 The Flag 08/14/2014 -- 0 0
417 A Woman's Love 08/14/2014 -- 0 0
418 A Father's Tribute 08/14/2014 -- 0 0
419 It's a Boy 08/14/2014 -- 0 0
420 A Discussion 08/14/2014 -- 0 0
421 I'd Rather Be A Failure 08/14/2014 -- 0 0
422 The Call To Service 08/14/2014 -- 0 0
423 Kelly Ingram 08/14/2014 -- 0 0
424 The Things That Make A Soldier Great 08/14/2014 -- 0 0
425 So Easy 08/14/2014 -- 0 0
426 Everywhere In America 08/14/2014 -- 0 0
427 Over Here 08/14/2014 -- 0 0
428 A Father's Wish 08/14/2014 -- 0 0
429 The Chip On Your Shoulder 08/14/2014 -- 0 0
430 Give Me A Single Day 08/14/2014 -- 0 0
431 The Benefit Of Trouble 08/14/2014 -- 0 0
432 The Reason For Work 08/14/2014 -- 0 0
433 Faces 08/14/2014 -- 0 0
434 The Things You Can't Forget 08/14/2014 -- 0 0
435 The Deeds Of Anger 08/14/2014 -- 0 0
436 From Laughter To Labor 08/14/2014 -- 0 0
437 To A Kindly Critic 08/14/2014 -- 0 0
438 The Plugger 08/14/2014 -- 0 0
439 Gossip 08/14/2014 -- 0 0
440 Don't Worry, Little Girl 08/14/2014 -- 0 0
441 Rather Stay Home 08/14/2014 -- 0 0
442 The Contented Man 08/14/2014 -- 0 0
443 Up And Down The Lanes Of Love 08/14/2014 -- 0 0
444 Names And Faces 08/14/2014 -- 0 0
445 The Fun Of Forgiving 08/14/2014 -- 0 0
446 There Will Always Be Something To Do 08/14/2014 -- 0 0
447 The Cookie-Lady 08/14/2014 -- 0 0
448 Not A Money Debt 08/20/2014 -- 0 0
449 The Women Of The Sailors 08/20/2014 -- 0 0
450 The First Rule Of Golf 08/20/2014 -- 0 0
451 One-Sided Faith 08/20/2014 -- 0 0
452 Human Failings 08/25/2014 -- 0 0
453 He Earned His Way 08/25/2014 -- 0 0
454 The Naughty Little Fellow 08/25/2014 -- 0 0
455 The Sensible Romance Of Mildred 08/25/2014 -- 0 0
456 Worth While 08/25/2014 -- 0 0
457 A New Year's Song 08/25/2014 -- 0 0
458 A Preference 08/25/2014 -- 0 0
459 Temptation 08/25/2014 -- 0 0
460 The Right To Joy 08/25/2014 -- 0 0
461 Little Miss Laugh-A-Lot 08/25/2014 -- 0 0
462 Mary 08/25/2014 -- 0 0
463 Sticky Fingers 08/25/2014 -- 0 0
464 The Notion Of Rastus 08/25/2014 -- 0 0
465 Charms 08/25/2014 -- 0 0
466 The Joys Of Earth 08/25/2014 -- 0 0
467 True Philosophy 08/25/2014 -- 0 0
468 The Fight With Self 08/25/2014 -- 0 0
469 The Influence Of Woman 08/25/2014 -- 0 0
470 Magazine Girl 08/25/2014 -- 0 0
471 The Way To Make Friends 08/25/2014 -- 0 0
472 Buckle In 08/25/2014 -- 0 0
473 His First Long Trousers 08/25/2014 -- 0 0
474 The Don't Believers 08/25/2014 -- 0 0
475 The Limitations Of Greatness 08/25/2014 -- 0 0
476 Reunited 08/25/2014 -- 0 0
477 For Others—And His Wife 08/25/2014 -- 0 0
478 The Glories Of The Present 08/25/2014 -- 0 0
479 The Spendthrift 08/25/2014 -- 0 0
480 Gardening 08/25/2014 -- 0 0
481 Tommy Atkins' Way 08/25/2014 -- 0 0
482 The Doubtful To-Morrow 08/25/2014 -- 0 0
483 Tonsils 08/25/2014 -- 0 0
484 The Old Wooden Tub 08/25/2014 -- 0 0
485 Tied Down 08/25/2014 -- 0 0
486 First Name Friends 08/25/2014 -- 0 0
487 Mrs. Malone And The Censor 08/25/2014 -- 0 0
488 Dr. Johnson's Picture Cow 08/25/2014 -- 0 0
489 She Mothered Five 08/25/2014 -- 0 0
490 The Cure For Weariness 08/25/2014 -- 0 0
491 A Vanished Joy 08/25/2014 -- 0 0
492 The Gold Givers 08/25/2014 -- 0 0
493 The Little Chap 08/25/2014 -- 0 0
494 The Thumbed Collar 08/25/2014 -- 0 0
495 Arcady 08/25/2014 -- 0 0
496 Play the Man 08/25/2014 -- 0 0
497 Wisdom's Haunts 08/25/2014 -- 0 0
498 A Good World 08/25/2014 -- 0 0
499 The Vote Of Thanks 08/25/2014 -- 0 0
500 Christmas Greeting 08/25/2014 -- 0 0
501 Mother Of Five 08/25/2014 -- 0 0
502 Slumberland Time 08/25/2014 -- 0 0
503 Trouble 08/25/2014 -- 0 0
504 What A Sick Woman Does 08/25/2014 -- 0 0
505 The Family Party 08/26/2014 -- 0 0
506 The Lanes Of Boyhood 08/26/2014 -- 0 0
507 His Philosophy 08/26/2014 -- 0 0
508 When Mother Made An Angel Cake 08/20/2014 -- 0 0
509 The Furnace Door 08/20/2014 -- 0 0
510 No Use Sighin' 08/20/2014 -- 0 0
511 When We Play The Fool 08/20/2014 -- 0 0
512 Just A Boy 08/20/2014 -- 0 0
513 Cleaning The Furnace 08/20/2014 -- 0 0
514 Pa And The Monthly Bills 08/20/2014 -- 0 0
515 His Santa Claus 08/20/2014 -- 0 0
516 War's Homecoming 08/20/2014 -- 0 0
517 For The Living 08/20/2014 -- 0 0
518 I'll Never Be Rich 08/20/2014 -- 0 0
519 The Monument Of Kindness 08/20/2014 -- 0 0
520 The Road Builder 08/20/2014 -- 0 0
521 The Man I Like 08/20/2014 -- 0 0
522 The Man Of His Word 08/20/2014 -- 0 0
523 Can't Frighten Them 08/20/2014 -- 0 0
524 Life And Hereafter 08/20/2014 -- 0 0
525 A Place At The Top 08/20/2014 -- 0 0
526 Business 08/20/2014 -- 0 0
527 Under A Tree 08/20/2014 -- 0 0
528 Man's Experience 08/20/2014 -- 0 0
529 A Lesson From Golf 08/20/2014 -- 0 0
530 Pleasing Dad 08/20/2014 -- 0 0
531 When An Old Man Gets To Thinking 08/20/2014 -- 0 0
532 The Test 08/20/2014 -- 0 0
533 When My Ship Comes In 08/20/2014 -- 0 0
534 Along The Paths O' Glory 08/20/2014 -- 0 0
535 The Doctor 08/20/2014 -- 0 0
536 What Makes An Artist 08/20/2014 -- 0 0
537 The World And Bud 08/20/2014 -- 0 0
538 Pretending Not To See 08/20/2014 -- 0 0
539 The Age Of Ink 08/20/2014 -- 0 0
540 United 08/20/2014 -- 0 0
541 The Better Thing 08/20/2014 -- 0 0
542 A Greeting 08/20/2014 -- 0 0
543 Living Monuments 08/20/2014 -- 0 0
544 Off To School 08/20/2014 -- 0 0
545 The Path O' Little Children 08/20/2014 -- 0 0
546 The Graduation Dress 08/20/2014 -- 0 0
547 Mother Nature 08/20/2014 -- 0 0
548 They're Coming Back 08/20/2014 -- 0 0
549 Two Viewpoints 08/20/2014 -- 0 0
550 Jimmy 08/20/2014 -- 0 0
551 Getting Her A Valentine 08/20/2014 -- 0 0
552 The Homes Of Joy 08/20/2014 -- 0 0
553 The Average Man 08/20/2014 -- 0 0
554 The Kindergarten Miss 08/20/2014 -- 0 0
555 Similar 08/20/2014 -- 0 0
556 True 08/20/2014 -- 0 0
557 Lullaby 08/20/2014 -- 0 0
558 The Cut-Down Trousers 08/20/2014 -- 0 0
559 Bread And Jam 08/20/2014 -- 0 0
560 The Bride 08/20/2014 -- 0 0
561 The Simple Things 08/20/2014 -- 0 0
562 Golf Luck 08/20/2014 -- 0 0
563 Committee Meetings 08/20/2014 -- 0 0
564 Nothing To Laugh At 08/20/2014 -- 0 0
565 Brothers All 08/20/2014 -- 0 0
566 Bob White 08/20/2014 -- 0 0
567 To A Lady Knitting 08/20/2014 -- 0 0
568 Thoughts Of A Soldier 08/20/2014 -- 0 0
569 General Pershing 08/20/2014 -- 0 0
570 As It Looks To The Boy 08/20/2014 -- 0 0
571 The Home-Wrecker 08/20/2014 -- 0 0
572 The Baby's Feet 08/20/2014 -- 0 0
573 A Real Thriller 08/20/2014 -- 0 0
574 History Teaches 08/20/2014 -- 0 0
575 Answering Age 08/20/2014 -- 0 0
576 Old-Fashioned Folks 08/20/2014 -- 0 0
577 People Like Him 07/14/2014 -- 0 0
578 Defeat 07/14/2014 -- 0 0
579 I 07/14/2014 -- 0 0
580 Challenge 07/14/2014 -- 0 0
581 A Prayer 07/14/2014 -- 0 0
582 An Easy World 07/14/2014 -- 0 0
583 A Vow 07/14/2014 -- 0 0
584 Things That Haven't Been Done Before 07/14/2014 -- 0 0
585 The Finer Thought 07/14/2014 -- 0 0
586 The Unsettled Scores 08/14/2014 -- 0 0
587 Move We Adjourn 08/14/2014 -- 0 0
588 The Waiter At The Camp 08/14/2014 -- 0 0
589 His Room 08/14/2014 -- 0 0
590 America 08/14/2014 -- 0 0
591 Why We Fight 08/14/2014 -- 0 0
592 Soldierly 08/14/2014 -- 0 0
593 The Lamb Skin 08/14/2014 -- 0 0
594 The Better Job 08/14/2014 -- 0 0
595 The Change 08/14/2014 -- 0 0
596 Good Luck 08/14/2014 -- 0 0
597 The Joy To Be 08/14/2014 -- 0 0
598 Mothers And Wives 08/14/2014 -- 0 0
599 The Time For Deeds 08/14/2014 -- 0 0
600 Treasures 07/12/2014 -- 0 0
601 Spring In The Trenches 07/12/2014 -- 0 0
602 Failures 07/12/2014 -- 0 0
603 Little Master Mischievous 07/12/2014 -- 0 0
604 Story Telling 07/12/2014 -- 0 0
605 When You Know A Fellow 07/12/2014 -- 0 0
606 My Paw Said So 07/12/2014 -- 0 0
607 The Dull Road 07/12/2014 -- 0 0
608 The Gentle Gardener 07/12/2014 -- 0 0
609 The Man Who Couldn't Save 07/12/2014 -- 0 0
610 At Sugar Camp 07/12/2014 -- 0 0
611 Preparedness 07/12/2014 -- 0 0
612 Care-Free Youth 07/12/2014 -- 0 0
613 The Home-town 07/12/2014 -- 0 0
614 Raisin Pie 07/12/2014 -- 0 0
615 The Finest Age 07/12/2014 -- 0 0
616 The Peaceful Warriors 07/14/2014 -- 0 0
617 It Isn't Costly 07/14/2014 -- 0 0
618 The Epicure 07/14/2014 -- 0 0
619 The Rough Little Rascal 07/14/2014 -- 0 0
620 Exempt 07/14/2014 -- 0 0
621 The Boy Enlists 07/14/2014 -- 0 0
622 A Coming Reunion 08/14/2014 -- 0 0
623 When Mother's Sewing Buttons On 08/14/2014 -- 0 0
624 All For The Best 08/14/2014 -- 0 0
625 Joys Within Reach 08/14/2014 -- 0 0
626 Life Is What We Make It 08/14/2014 -- 0 0
627 Hope 08/14/2014 -- 0 0
628 A Woman's Ways 08/14/2014 -- 0 0
629 A Convalescin' Woman 08/14/2014 -- 0 0
630 The Book Of Memory 08/14/2014 -- 0 0
631 Afraid Of His Dad 08/14/2014 -- 0 0
632 Sympathy 08/14/2014 -- 0 0
633 Little Girls 08/14/2014 -- 0 0
634 When We're All Alike 08/14/2014 -- 0 0
635 To A Little Girl 08/14/2014 -- 0 0
636 The Discovery Of A Soul 08/14/2014 -- 0 0
637 Love 08/14/2014 -- 0 0
638 Couldn't Live Without You 08/14/2014 -- 0 0
639 A Wonderful World 08/14/2014 -- 0 0
640 A Feller's Hat 08/14/2014 -- 0 0
641 The Toy-Strewn Home 08/14/2014 -- 0 0
642 To An Old Friend 08/14/2014 -- 0 0
643 I Ain't Dead Yet 08/14/2014 -- 0 0
644 Life's Single Standard 08/14/2014 -- 0 0
645 The True Man 08/14/2014 -- 0 0
646 Our Little Needs 08/14/2014 -- 0 0
647 When We Understand The Plan 08/14/2014 -- 0 0
648 Bedtime 08/14/2014 -- 0 0
649 After All Is Said And Done 08/14/2014 -- 0 0
650 The Loss Is Not So Great 08/14/2014 -- 0 0
651 Too Big A Price 08/14/2014 -- 0 0
652 The Glory Of Age 08/14/2014 -- 0 0
653 Grandma 08/14/2014 -- 0 0
654 Since I Have Done My Best 08/14/2014 -- 0 0
655 What We Can Be 08/14/2014 -- 0 0
656 The Mother Watch 08/14/2014 -- 0 0
657 Looking Back 08/14/2014 -- 0 0
658 Today 08/14/2014 -- 0 0
659 A Good Name 08/14/2014 -- 0 0
660 The Children 08/14/2014 -- 0 0
661 Satisfied With Life 08/14/2014 -- 0 0
662 The Undaunted 08/14/2014 -- 0 0
663 Golf Pride 08/14/2014 -- 0 0
664 If Those Who Love Us 08/14/2014 -- 0 0
665 The Departed 08/14/2014 -- 0 0
666 Joy 08/14/2014 -- 0 0
667 The Three Me's 08/14/2014 -- 0 0
668 The Struggle 08/14/2014 -- 0 0
669 He Has Not Lived In Vain 08/14/2014 -- 0 0
670 A Heart To Heart Talk 08/14/2014 -- 0 0
671 Be Cheerful 08/14/2014 -- 0 0
672 Becoming A Dad 08/14/2014 -- 0 0
673 Best Way To Read A Book 08/14/2014 -- 0 0
674 Little Girls Are Best 08/14/2014 -- 0 0
675 Learn To Smile 08/14/2014 -- 0 0
676 Wait Till Your Pa Comes Home 08/14/2014 -- 0 0
677 Out Of It All 08/14/2014 -- 0 0
678 At The Peace Table 08/14/2014 -- 0 0
679 Fine 08/14/2014 -- 0 0
680 The Happy Man 08/15/2014 -- 0 0
681 Practicing Time 08/15/2014 -- 0 0
682 Trouble Brings Friends 08/15/2014 -- 0 0
683 Carry On 08/15/2014 -- 0 0
684 He Should Meet A Mother There 08/15/2014 -- 0 0
685 Fly A Clean Flag 08/15/2014 -- 0 0
686 April Thoughts 08/15/2014 -- 0 0
687 Friendship 08/15/2014 -- 0 0
688 Contentment 08/15/2014 -- 0 0
689 Toys And Life 08/15/2014 -- 0 0
690 When Friends Drop In 08/15/2014 -- 0 0
691 July The Fourth, 1917 08/15/2014 -- 0 0
692 Follow The Flag 08/15/2014 -- 0 0
693 Do Your All 08/15/2014 -- 0 0
694 We Who Stay At Home 08/15/2014 -- 0 0
695 If You And I 08/15/2014 -- 0 0
696 A Song 08/15/2014 -- 0 0
697 When It's Bad To Forget 08/15/2014 -- 0 0
698 Why I'm Glad 08/15/2014 -- 0 0
699 Patriotism 08/15/2014 -- 0 0
700 Lost Opportunities 08/15/2014 -- 0 0
701 The Approach Of Christmas 08/15/2014 -- 0 0
702 Selling The Old Home 08/15/2014 -- 0 0
703 With Dog And Gun 08/15/2014 -- 0 0
704 Little Wrangles 08/15/2014 -- 0 0
705 The Responsibility Of Fatherhood 08/15/2014 -- 0 0
706 The Little Old-Fashioned Church 08/15/2014 -- 0 0
707 When We Were Kids 08/15/2014 -- 0 0
708 Dreaming 08/15/2014 -- 0 0
709 At The Cottage 08/15/2014 -- 0 0
710 The Sweetest Soul I Ever Knew 08/15/2014 -- 0 0
711 Some Day 08/15/2014 -- 0 0
712 Consolation 08/15/2014 -- 0 0
713 Don't You Know 08/15/2014 -- 0 0
714 Alone 08/15/2014 -- 0 0
715 Aunty 08/15/2014 -- 0 0
716 My Soul And I 08/15/2014 -- 0 0
717 Under The Roof Where The Laughter Rings 08/15/2014 -- 0 0
718 Ambition 08/15/2014 -- 0 0
719 Contradictin' Joe 08/15/2014 -- 0 0
720 Aw Gee Whiz! 08/15/2014 -- 0 0
721 A Good Soldier 08/15/2014 -- 0 0
722 Beautifying The Flag 08/15/2014 -- 0 0
723 The Birth Of Love 08/15/2014 -- 0 0
724 At the Wedding 08/15/2014 -- 0 0
725 Real Lessons 08/20/2014 -- 0 0
726 Memories Of Tomorrow 08/20/2014 -- 0 0
727 Lonely 08/20/2014 -- 0 0
728 The Man Who's Down 08/20/2014 -- 0 0
729 The Green Of Michigan 08/20/2014 -- 0 0
730 They Don't 08/20/2014 -- 0 0
731 Easter 08/20/2014 -- 0 0
732 To The Failures 08/20/2014 -- 0 0
733 The Lilacs 08/20/2014 -- 0 0
734 A Query — 08/20/2014 -- 0 0
735 Christmas Eve 08/20/2014 -- 0 0
736 The Song Of Loved Ones 08/20/2014 -- 0 0
737 The Burden Bearer 08/20/2014 -- 0 0
738 Spoiling Them 08/20/2014 -- 0 0
739 Loser And Victor 08/20/2014 -- 0 0
740 Ma And The Ouija Board 08/20/2014 -- 0 0
741 To The Men At Home 08/20/2014 -- 0 0
742 Here We Are! 08/20/2014 -- 0 0
743 A Lullaby 08/20/2014 -- 0 0
744 A Pat On The Back 08/20/2014 -- 0 0
745 Neglected 08/20/2014 -- 0 0
746 Mothers' Splendid Dreams 08/20/2014 -- 0 0
747 A Suggestion 08/20/2014 -- 0 0
748 When There's Health In The House 08/20/2014 -- 0 0
749 Keep To The Right 08/20/2014 -- 0 0
750 An Ode To Nellie 08/20/2014 -- 0 0
751 Think Happy Thoughts 08/20/2014 -- 0 0
752 A Successful Dad 08/20/2014 -- 0 0
753 A Year's New Wish 08/20/2014 -- 0 0
754 Endurance 08/20/2014 -- 0 0
755 His Example 08/20/2014 -- 0 0
756 To The Boy 08/20/2014 -- 0 0
757 What Father Knows 08/20/2014 -- 0 0
758 Mother's Job 08/20/2014 -- 0 0
759 She Powders Her Nose 08/20/2014 -- 0 0
760 Old Years And New 08/20/2014 -- 0 0
761 Safe At Home 08/20/2014 -- 0 0
762 The Honor Roll 08/20/2014 -- 0 0
763 Next Of Kin 08/20/2014 -- 0 0
764 The Christmas Box 08/20/2014 -- 0 0
765 The Boy's Adventure 08/20/2014 -- 0 0
766 Bigger Than His Dad 08/20/2014 -- 0 0
767 The Sympathetic Minister 08/20/2014 -- 0 0
768 The Shattered Dream 08/20/2014 -- 0 0
769 Trustful Ma 08/20/2014 -- 0 0
770 The Fight Worth While 08/20/2014 -- 0 0
771 The Songs Of Night 08/20/2014 -- 0 0
772 Unphilosophic 08/20/2014 -- 0 0
773 Mark Twain 08/20/2014 -- 0 0
774 Back To School 08/20/2014 -- 0 0
775 Independence Day 08/20/2014 -- 0 0
776 The Man I'm For 08/20/2014 -- 0 0
777 At Breakfast Time 07/11/2014 -- 0 0
778 Kindness 08/14/2014 -- 0 0
779 The Making Of Friends 08/14/2014 -- 0 0
780 The Call Of The Woods 08/14/2014 -- 0 0
781 The Joys Of Home 08/14/2014 -- 0 0
782 Autumn 08/14/2014 -- 0 0
783 Sittin' On The Porch 08/14/2014 -- 0 0
784 The Way To Do 08/26/2014 -- 0 0
785 Little Miss Six O'Clock 08/26/2014 -- 0 0
786 A Little The Best Of It 08/26/2014 -- 0 0
787 His Chance 08/26/2014 -- 0 0
788 Roses, Birds And Some Men 08/26/2014 -- 0 0
789 A Valentine 08/26/2014 -- 0 0
790 The Town Of Nothing-To-Do 08/26/2014 -- 0 0
791 The Rewards Of Industry 08/26/2014 -- 0 0
792 Literary Mother 08/26/2014 -- 0 0
793 Somebody Spoke A Cheering Word 08/26/2014 -- 0 0
794 The Old Days 08/26/2014 -- 0 0
795 Roses And Gasoline 08/26/2014 -- 0 0
796 A Fourth Of July Wish 08/26/2014 -- 0 0
797 The Christmas Spirit 08/26/2014 -- 0 0
798 The Change-Worker 08/26/2014 -- 0 0
799 At Dawn 08/26/2014 -- 0 0
800 The Pay Envelope 08/26/2014 -- 0 0
801 Dinner-Time 08/26/2014 -- 0 0
802 My Job 08/26/2014 -- 0 0
803 The Finest Fellowship 08/26/2014 -- 0 0
804 The Gift Of Play 08/26/2014 -- 0 0
805 The Little Woman 08/26/2014 -- 0 0
806 An Old-Fashioned Welcome 08/26/2014 -- 0 0
807 Summer Dreams 08/26/2014 -- 0 0
808 Where's Mamma? 08/26/2014 -- 0 0
809 What Home's Intended For 08/26/2014 -- 0 0
810 The Christmas Gift For Mother 08/26/2014 -- 0 0
811 Boy And His Stomach 08/26/2014 -- 0 0
812 The Simple Toilers 08/26/2014 -- 0 0
813 The Lonely Fight 08/26/2014 -- 0 0
814 Different 08/26/2014 -- 0 0
815 Ma An' Me 08/26/2014 -- 0 0
816 He Struck Me! 08/26/2014 -- 0 0
817 Fame 08/26/2014 -- 0 0
818 Tuckered Out 08/26/2014 -- 0 0
819 His Rattle He Throws On The Floor 08/26/2014 -- 0 0
820 Fixing The Shame 08/26/2014 -- 0 0
821 What Ma Said 08/26/2014 -- 0 0
822 A Scare 08/26/2014 -- 0 0
823 The Ballad Of The New Arrival 08/26/2014 -- 0 0
824 Riches 08/26/2014 -- 0 0
825 The Little Country Bus 08/26/2014 -- 0 0
826 Cornered 08/26/2014 -- 0 0
827 The Painter 08/26/2014 -- 0 0
828 Old Fashioned Remedies 08/26/2014 -- 0 0
829 Doughnuts And Cider 08/26/2014 -- 0 0
830 Sunday In The Country 08/26/2014 -- 0 0
831 The Rich Man's Woes 08/26/2014 -- 0 0
832 Winds Of The Morning 08/26/2014 -- 0 0
833 The Boy Mind 08/26/2014 -- 0 0
834 The Farmer Talks 08/26/2014 -- 0 0
835 The Summer Argument 08/26/2014 -- 0 0
836 My Plan 08/26/2014 -- 0 0
837 Out Of The Day 08/26/2014 -- 0 0
838 Nothing Unusual 08/26/2014 -- 0 0
839 The Homecomer's Song 08/26/2014 -- 0 0
840 Other's Successes 08/27/2014 -- 0 0
841 The Cost Of Praise 08/27/2014 -- 0 0
842 What To Do 08/27/2014 -- 0 0
843 The Way Of The World 08/27/2014 -- 0 0
844 The Summer Girl 08/27/2014 -- 0 0
845 After A Proposal 08/27/2014 -- 0 0
846 Songs Of Gloom 08/27/2014 -- 0 0
847 My Word! 08/27/2014 -- 0 0
848 The March O' Man 08/27/2014 -- 0 0
849 Father's Chore 08/27/2014 -- 0 0
850 Living Flowers 08/27/2014 -- 0 0
851 His Dog 08/27/2014 -- 0 0
852 Thoughts Of A Father 08/27/2014 -- 0 0
853 The Evening Prayer 08/27/2014 -- 0 0
854 The Comedian 08/27/2014 -- 0 0
855 Mother's Party Dress 08/27/2014 -- 0 0
856 The Lost Purse 08/27/2014 -- 0 0
857 Autumn Evenings 08/27/2014 -- 0 0
858 Copy Paper 08/27/2014 -- 0 0
859 The Cure 08/27/2014 -- 0 0
860 Answering The Usual Questions 08/27/2014 -- 0 0
861 Capital Punishment 08/27/2014 -- 0 0
862 The Time For Brotherhood 08/27/2014 -- 0 0
863 Tell Him Why 08/27/2014 -- 0 0
864 Jes' Wonderin'! 08/27/2014 -- 0 0
865 The Value Of A Telephone 08/27/2014 -- 0 0
866 Sacrifices 08/27/2014 -- 0 0
867 The Toiler 08/27/2014 -- 0 0
868 The Child World 08/27/2014 -- 0 0
869 The Limit 08/27/2014 -- 0 0
870 Neil Snow 08/27/2014 -- 0 0
871 The Disgrace Of Poverty 08/27/2014 -- 0 0
872 The Gentle Hand Of Women Folks 08/27/2014 -- 0 0
873 Fishing Reasons 08/27/2014 -- 0 0
874 Man And Lathe 08/27/2014 -- 0 0
875 If I Were Santa Claus 08/27/2014 -- 0 0
876 The Bank Clerk 08/27/2014 -- 0 0
877 The Killing Place 08/27/2014 -- 0 0
878 Found Out 08/27/2014 -- 0 0
879 You And Your Body 08/27/2014 -- 0 0
880 Lillian's Reading 08/27/2014 -- 0 0
881 Chums 08/27/2014 -- 0 0
882 Safe Conduct 08/27/2014 -- 0 0
883 Tinkerin' At Home 08/27/2014 -- 0 0
884 Being Dad On Christmas Eve 08/27/2014 -- 0 0
885 Our Country 08/27/2014 -- 0 0
886 Bud Discusses Cleanliness 08/27/2014 -- 0 0
887 Pleasure's Signs 08/27/2014 -- 0 0
888 St. Valentine's Day 08/27/2014 -- 0 0
889 When The Minister Calls 08/27/2014 -- 0 0
890 The Song Of The Builder 08/27/2014 -- 0 0
891 The Lucky Man 08/27/2014 -- 0 0
892 Old Mister Laughter 08/27/2014 -- 0 0
893 The Wide Outdoors 08/27/2014 -- 0 0
894 The Spoiler 08/27/2014 -- 0 0
895 George Moir Black 08/27/2014 -- 0 0
896 Real Help 08/27/2014 -- 0 0
897 Answering The Grumblers 08/27/2014 -- 0 0
898 Troubles 08/27/2014 -- 0 0
899 Strange 08/27/2014 -- 0 0
900 My Proud Pa 08/27/2014 -- 0 0
901 Welcoming The New Year 08/27/2014 -- 0 0
902 ‘Erbert's H'Opinion 08/27/2014 -- 0 0
903 The Jedge Of Bowie County 08/27/2014 -- 0 0
904 Song Of The Many 08/27/2014 -- 0 0
905 Down The Lanes Of August 08/27/2014 -- 0 0
906 The Whiners 08/27/2014 -- 0 0
907 Let's Go 08/27/2014 -- 0 0
908 Food, Clothes And Drink 08/27/2014 -- 0 0
909 The Tempters 08/27/2014 -- 0 0
910 The Neighbors 08/27/2014 -- 0 0
911 Good Friday 08/27/2014 -- 0 0
912 The Choir At Pixley 08/27/2014 -- 0 0
913 Comradeship 08/27/2014 -- 0 0
914 The Bank Roll 08/27/2014 -- 0 0
915 On Station Farewells 08/27/2014 -- 0 0
916 The Dreams Of Youth 08/27/2014 -- 0 0
917 United States 08/27/2014 -- 0 0
918 Cliffs Of Scotland 08/27/2014 -- 0 0
919 If I Had Youth 08/27/2014 -- 0 0
920 We're Dreamers All 08/27/2014 -- 0 0
921 Pa Discusses Economy 08/27/2014 -- 0 0
922 Little Fellow 08/27/2014 -- 0 0
923 The Brave Men 08/27/2014 -- 0 0
924 Glad 08/27/2014 -- 0 0
925 King 08/27/2014 -- 0 0
926 Lines To The Wash Woman 08/27/2014 -- 0 0
927 Punishment 08/27/2014 -- 0 0
928 Hubbard And Pelletier 08/27/2014 -- 0 0
929 Fishin'-Hunger 08/27/2014 -- 0 0
930 When The Dressmaker Comes 08/27/2014 -- 0 0
931 The Bright Side 08/27/2014 -- 0 0
932 An Uncle 08/27/2014 -- 0 0
933 The Dream days 08/27/2014 -- 0 0
934 September 08/27/2014 -- 0 0
935 The Peevish Man 08/27/2014 -- 0 0
936 When Pa Gets Back 08/27/2014 -- 0 0
937 The Card Club's First Meeting 08/27/2014 -- 0 0
938 The New Year's Caller 08/27/2014 -- 0 0
939 The After-Dinner Smoke 08/27/2014 -- 0 0
940 At The Summer Cottage 08/27/2014 -- 0 0
941 The Old-Fashioned Cooks 08/27/2014 -- 0 0
942 My Big Brother 08/27/2014 -- 0 0
943 The Right Family 08/27/2014 -- 0 0
944 Shut-Ins 08/27/2014 -- 0 0
945 The Tramp 08/27/2014 -- 0 0
946 The Father Of The Man 08/27/2014 -- 0 0
947 Snooping 'Round 08/27/2014 -- 0 0
948 Little Fishermen 08/27/2014 -- 0 0
949 An Apple Tree In France 08/27/2014 -- 0 0
950 Only A Building 08/27/2014 -- 0 0
951 Your Caddie And You 08/27/2014 -- 0 0
952 St. Louis: A Song Of The City 09/02/2014 -- 0 0
953 The Peaks Of Valor 09/02/2014 -- 0 0
954 Where Children Play 09/02/2014 -- 0 0
955 The Willing Horse 09/02/2014 -- 0 0
956 Green Apple Time 09/02/2014 -- 0 0
957 When Ma Wants Something New 09/02/2014 -- 0 0
958 Dan McGann Declares Himself 09/02/2014 -- 0 0
959 Dreading 09/02/2014 -- 0 0
960 Happiness 09/02/2014 -- 0 0
961 Now And Then 09/02/2014 -- 0 0
962 A Personal View Of War 09/02/2014 -- 0 0
963 The Joy Of Getting Back 09/02/2014 -- 0 0
964 Queer Ebenezer 09/02/2014 -- 0 0
965 The Lanes Of Apple Bloom 09/02/2014 -- 0 0
966 Warning The Carpenter 09/02/2014 -- 0 0
967 Little Marie 09/02/2014 -- 0 0
968 Not Crossing Bridges 09/02/2014 -- 0 0
969 Henry Ford's Offhand Way 09/02/2014 -- 0 0
970 The Worry-Chaser 09/02/2014 -- 0 0
971 Out In The Open 09/02/2014 -- 0 0
972 Pixley Folks 09/02/2014 -- 0 0
973 Contrary Sary 09/02/2014 -- 0 0
974 Out At Pelletier's 09/02/2014 -- 0 0
975 The Panama Canal 09/02/2014 -- 0 0
976 Be A Friend 12/08/2014 -- 0 0
977 Bravery 08/20/2014 -- 0 0
978 Only a Dad 03/03/2015 -- 0 0
979 Don't Quit 03/24/2015 -- 0 0
[Hata Bildir]